sensor_id;sensor_type;location;lat;lon;timestamp;pressure;altitude;pressure_sealevel;temperature;humidity
5996;BME280;3026;53.612;7.278;2023-06-10T00:00:39;101808.03;;;14.15;100.00
5996;BME280;3026;53.612;7.278;2023-06-10T00:03:07;101811.47;;;14.09;100.00
5996;BME280;3026;53.612;7.278;2023-06-10T00:05:35;101806.50;;;14.04;100.00
5996;BME280;3026;53.612;7.278;2023-06-10T00:08:04;101811.81;;;13.97;100.00
5996;BME280;3026;53.612;7.278;2023-06-10T00:10:33;101812.16;;;13.94;100.00
5996;BME280;3026;53.612;7.278;2023-06-10T00:13:00;101808.19;;;13.89;100.00
5996;BME280;3026;53.612;7.278;2023-06-10T00:15:28;101805.97;;;13.84;100.00
5996;BME280;3026;53.612;7.278;2023-06-10T00:17:54;101808.38;;;13.79;100.00
5996;BME280;3026;53.612;7.278;2023-06-10T00:20:21;101804.09;;;13.77;100.00
5996;BME280;3026;53.612;7.278;2023-06-10T00:22:50;101808.72;;;13.76;100.00
5996;BME280;3026;53.612;7.278;2023-06-10T00:25:17;101814.53;;;13.73;100.00
5996;BME280;3026;53.612;7.278;2023-06-10T00:27:44;101813.16;;;13.69;100.00
5996;BME280;3026;53.612;7.278;2023-06-10T00:30:13;101819.16;;;13.64;100.00
5996;BME280;3026;53.612;7.278;2023-06-10T00:32:40;101819.66;;;13.60;100.00
5996;BME280;3026;53.612;7.278;2023-06-10T00:35:07;101812.81;;;13.56;100.00
5996;BME280;3026;53.612;7.278;2023-06-10T00:37:34;101824.09;;;13.53;100.00
5996;BME280;3026;53.612;7.278;2023-06-10T00:40:03;101812.09;;;13.46;100.00
5996;BME280;3026;53.612;7.278;2023-06-10T00:42:30;101815.03;;;13.44;100.00
5996;BME280;3026;53.612;7.278;2023-06-10T00:44:57;101823.38;;;13.42;100.00
5996;BME280;3026;53.612;7.278;2023-06-10T00:47:25;101824.41;;;13.41;100.00
5996;BME280;3026;53.612;7.278;2023-06-10T00:49:53;101822.00;;;13.38;100.00
5996;BME280;3026;53.612;7.278;2023-06-10T00:52:22;101820.28;;;13.37;100.00
5996;BME280;3026;53.612;7.278;2023-06-10T00:54:50;101822.34;;;13.35;100.00
5996;BME280;3026;53.612;7.278;2023-06-10T00:57:19;101817.72;;;13.36;100.00
5996;BME280;3026;53.612;7.278;2023-06-10T00:59:48;101818.59;;;13.36;100.00
5996;BME280;3026;53.612;7.278;2023-06-10T01:02:15;101822.88;;;13.39;100.00
5996;BME280;3026;53.612;7.278;2023-06-10T01:04:42;101819.94;;;13.40;100.00
5996;BME280;3026;53.612;7.278;2023-06-10T01:07:14;101822.00;;;13.38;100.00
5996;BME280;3026;53.612;7.278;2023-06-10T01:09:48;101822.00;;;13.38;100.00
5996;BME280;3026;53.612;7.278;2023-06-10T01:12:31;101824.06;;;13.36;100.00
5996;BME280;3026;53.612;7.278;2023-06-10T01:15:00;101818.59;;;13.36;100.00
5996;BME280;3026;53.612;7.278;2023-06-10T01:17:28;101820.28;;;13.37;100.00
5996;BME280;3026;53.612;7.278;2023-06-10T01:19:56;101820.63;;;13.34;100.00
5996;BME280;3026;53.612;7.278;2023-06-10T01:22:26;101826.13;;;13.34;100.00
5996;BME280;3026;53.612;7.278;2023-06-10T01:24:54;101818.25;;;13.31;100.00
5996;BME280;3026;53.612;7.278;2023-06-10T01:27:25;101819.22;;;13.30;100.00
5996;BME280;3026;53.612;7.278;2023-06-10T01:29:59;101829.50;;;13.28;100.00
5996;BME280;3026;53.612;7.278;2023-06-10T01:32:33;101827.78;;;13.27;100.00
5996;BME280;3026;53.612;7.278;2023-06-10T01:35:02;101819.56;;;13.27;100.00
5996;BME280;3026;53.612;7.278;2023-06-10T01:37:31;101823.34;;;13.26;100.00
5996;BME280;3026;53.612;7.278;2023-06-10T01:40:00;101822.66;;;13.24;100.00
5996;BME280;3026;53.612;7.278;2023-06-10T01:42:31;101821.97;;;13.22;100.00
5996;BME280;3026;53.612;7.278;2023-06-10T01:44:58;101824.03;;;13.20;100.00
5996;BME280;3026;53.612;7.278;2023-06-10T01:47:25;101820.88;;;13.15;100.00
5996;BME280;3026;53.612;7.278;2023-06-10T01:49:52;101824.63;;;13.14;100.00
5996;BME280;3026;53.612;7.278;2023-06-10T01:52:19;101828.75;;;13.10;100.00
5996;BME280;3026;53.612;7.278;2023-06-10T01:54:47;101826.19;;;13.08;100.00
5996;BME280;3026;53.612;7.278;2023-06-10T01:57:13;101832.81;;;13.06;100.00
5996;BME280;3026;53.612;7.278;2023-06-10T01:59:41;101829.38;;;13.04;100.00
5996;BME280;3026;53.612;7.278;2023-06-10T02:02:09;101834.00;;;13.03;100.00
5996;BME280;3026;53.612;7.278;2023-06-10T02:04:36;101829.72;;;13.01;100.00
5996;BME280;3026;53.612;7.278;2023-06-10T02:07:03;101828.34;;;12.97;100.00
5996;BME280;3026;53.612;7.278;2023-06-10T02:09:31;101833.81;;;12.97;100.00
5996;BME280;3026;53.612;7.278;2023-06-10T02:12:02;101837.72;;;12.94;100.00
5996;BME280;3026;53.612;7.278;2023-06-10T02:14:29;101834.13;;;12.94;100.00
5996;BME280;3026;53.612;7.278;2023-06-10T02:16:56;101843.38;;;12.93;100.00
5996;BME280;3026;53.612;7.278;2023-06-10T02:19:23;101840.63;;;12.93;100.00
5996;BME280;3026;53.612;7.278;2023-06-10T02:21:50;101836.19;;;12.92;100.00
5996;BME280;3026;53.612;7.278;2023-06-10T02:24:17;101833.09;;;12.87;100.00
5996;BME280;3026;53.612;7.278;2023-06-10T02:26:44;101837.84;;;12.84;100.00
5996;BME280;3026;53.612;7.278;2023-06-10T02:29:14;101840.22;;;12.79;100.00
5996;BME280;3026;53.612;7.278;2023-06-10T02:31:41;101841.59;;;12.75;100.00
5996;BME280;3026;53.612;7.278;2023-06-10T02:34:08;101847.34;;;12.72;100.00
5996;BME280;3026;53.612;7.278;2023-06-10T02:36:34;101851.13;;;12.71;100.00
5996;BME280;3026;53.612;7.278;2023-06-10T02:39:02;101847.69;;;12.69;100.00
5996;BME280;3026;53.612;7.278;2023-06-10T02:41:29;101847.69;;;12.69;100.00
5996;BME280;3026;53.612;7.278;2023-06-10T02:43:56;101853.16;;;12.69;100.00
5996;BME280;3026;53.612;7.278;2023-06-10T02:46:24;101849.75;;;12.67;100.00
5996;BME280;3026;53.612;7.278;2023-06-10T02:48:51;101858.97;;;12.66;100.00
5996;BME280;3026;53.612;7.278;2023-06-10T02:51:18;101860.16;;;12.64;100.00
5996;BME280;3026;53.612;7.278;2023-06-10T02:53:46;101848.34;;;12.63;100.00
5996;BME280;3026;53.612;7.278;2023-06-10T02:56:15;101852.13;;;12.62;100.00
5996;BME280;3026;53.612;7.278;2023-06-10T02:58:42;101849.50;;;12.61;100.00
5996;BME280;3026;53.612;7.278;2023-06-10T03:01:09;101848.66;;;12.60;100.00
5996;BME280;3026;53.612;7.278;2023-06-10T03:03:37;101855.84;;;12.61;100.00
5996;BME280;3026;53.612;7.278;2023-06-10T03:06:08;101855.72;;;12.63;100.00
5996;BME280;3026;53.612;7.278;2023-06-10T03:08:35;101844.59;;;12.64;100.00
5996;BME280;3026;53.612;7.278;2023-06-10T03:11:03;101843.41;;;12.67;100.00
5996;BME280;3026;53.612;7.278;2023-06-10T03:13:30;101848.53;;;12.70;100.00
5996;BME280;3026;53.612;7.278;2023-06-10T03:15:57;101851.97;;;12.72;100.00
5996;BME280;3026;53.612;7.278;2023-06-10T03:18:26;101856.28;;;12.74;100.00
5996;BME280;3026;53.612;7.278;2023-06-10T03:20:54;101849.06;;;12.73;100.00
5996;BME280;3026;53.612;7.278;2023-06-10T03:23:21;101851.50;;;12.76;100.00
5996;BME280;3026;53.612;7.278;2023-06-10T03:25:48;101846.72;;;12.78;100.00
5996;BME280;3026;53.612;7.278;2023-06-10T03:28:15;101853.91;;;12.79;100.00
5996;BME280;3026;53.612;7.278;2023-06-10T03:30:42;101858.19;;;12.82;100.00
5996;BME280;3026;53.612;7.278;2023-06-10T03:33:09;101850.66;;;12.84;100.00
5996;BME280;3026;53.612;7.278;2023-06-10T03:35:35;101862.47;;;12.84;100.00
5996;BME280;3026;53.612;7.278;2023-06-10T03:38:03;101857.00;;;12.84;100.00
5996;BME280;3026;53.612;7.278;2023-06-10T03:40:30;101856.00;;;12.85;100.00
5996;BME280;3026;53.612;7.278;2023-06-10T03:42:57;101858.75;;;12.85;100.00
5996;BME280;3026;53.612;7.278;2023-06-10T03:45:24;101858.41;;;12.89;100.00
5996;BME280;3026;53.612;7.278;2023-06-10T03:47:53;101854.97;;;12.87;100.00
5996;BME280;3026;53.612;7.278;2023-06-10T03:50:21;101860.47;;;12.87;100.00
5996;BME280;3026;53.612;7.278;2023-06-10T03:52:48;101862.19;;;12.88;100.00
5996;BME280;3026;53.612;7.278;2023-06-10T03:55:17;101857.56;;;12.88;100.00
5996;BME280;3026;53.612;7.278;2023-06-10T03:57:47;101874.50;;;12.92;100.00
5996;BME280;3026;53.612;7.278;2023-06-10T04:00:15;101866.97;;;12.94;100.00
5996;BME280;3026;53.612;7.278;2023-06-10T04:02:43;101864.06;;;12.95;100.00
5996;BME280;3026;53.612;7.278;2023-06-10T04:05:14;101869.25;;;12.98;100.00
5996;BME280;3026;53.612;7.278;2023-06-10T04:07:41;101867.03;;;13.02;100.00
5996;BME280;3026;53.612;7.278;2023-06-10T04:10:09;101870.28;;;13.05;100.00
5996;BME280;3026;53.612;7.278;2023-06-10T04:12:38;101860.75;;;13.09;100.00
5996;BME280;3026;53.612;7.278;2023-06-10T04:15:06;101872.91;;;13.15;100.00
5996;BME280;3026;53.612;7.278;2023-06-10T04:17:33;101871.56;;;13.19;100.00
5996;BME280;3026;53.612;7.278;2023-06-10T04:20:00;101865.78;;;13.22;100.00
5996;BME280;3026;53.612;7.278;2023-06-10T04:22:29;101868.88;;;13.27;100.00
5996;BME280;3026;53.612;7.278;2023-06-10T04:24:56;101873.03;;;13.31;100.00
5996;BME280;3026;53.612;7.278;2023-06-10T04:27:23;101867.03;;;13.36;100.00
5996;BME280;3026;53.612;7.278;2023-06-10T04:29:52;101868.41;;;13.40;100.00
5996;BME280;3026;53.612;7.278;2023-06-10T04:32:19;101874.09;;;13.47;100.00
5996;BME280;3026;53.612;7.278;2023-06-10T04:34:45;101869.81;;;13.52;100.00
5996;BME280;3026;53.612;7.278;2023-06-10T04:37:12;101872.75;;;13.59;100.00
5996;BME280;3026;53.612;7.278;2023-06-10T04:39:40;101870.34;;;13.64;100.00
5996;BME280;3026;53.612;7.278;2023-06-10T04:42:07;101877.59;;;13.73;100.00
5996;BME280;3026;53.612;7.278;2023-06-10T04:44:34;101883.44;;;13.78;100.00
5996;BME280;3026;53.612;7.278;2023-06-10T04:47:02;101878.97;;;13.85;100.00
5996;BME280;3026;53.612;7.278;2023-06-10T04:49:29;101878.31;;;13.91;100.00
5996;BME280;3026;53.612;7.278;2023-06-10T04:51:57;101876.75;;;13.97;100.00
5996;BME280;3026;53.612;7.278;2023-06-10T04:54:25;101871.47;;;14.04;100.00
5996;BME280;3026;53.612;7.278;2023-06-10T04:56:52;101868.72;;;14.12;100.00
5996;BME280;3026;53.612;7.278;2023-06-10T04:59:19;101867.19;;;14.17;100.00
5996;BME280;3026;53.612;7.278;2023-06-10T05:01:46;101874.56;;;14.25;100.00
5996;BME280;3026;53.612;7.278;2023-06-10T05:04:14;101872.16;;;14.30;100.00
5996;BME280;3026;53.612;7.278;2023-06-10T05:06:41;101878.69;;;14.37;100.00
5996;BME280;3026;53.612;7.278;2023-06-10T05:09:09;101869.06;;;14.41;100.00
5996;BME280;3026;53.612;7.278;2023-06-10T05:11:36;101871.16;;;14.47;100.00
5996;BME280;3026;53.612;7.278;2023-06-10T05:14:03;101863.91;;;14.54;100.00
5996;BME280;3026;53.612;7.278;2023-06-10T05:16:30;101870.44;;;14.62;100.00
5996;BME280;3026;53.612;7.278;2023-06-10T05:18:57;101865.28;;;14.67;100.00
5996;BME280;3026;53.612;7.278;2023-06-10T05:21:25;101876.25;;;14.75;100.00
5996;BME280;3026;53.612;7.278;2023-06-10T05:23:52;101874.69;;;14.80;100.00
5996;BME280;3026;53.612;7.278;2023-06-10T05:26:19;101880.34;;;14.87;100.00
5996;BME280;3026;53.612;7.278;2023-06-10T05:28:45;101883.06;;;14.95;100.00
5996;BME280;3026;53.612;7.278;2023-06-10T05:31:12;101884.41;;;14.99;100.00
5996;BME280;3026;53.612;7.278;2023-06-10T05:33:39;101885.78;;;15.03;100.00
5996;BME280;3026;53.612;7.278;2023-06-10T05:36:06;101876.84;;;15.09;100.00
5996;BME280;3026;53.612;7.278;2023-06-10T05:38:34;101877.84;;;15.16;100.00
5996;BME280;3026;53.612;7.278;2023-06-10T05:41:01;101877.78;;;15.25;100.00
5996;BME280;3026;53.612;7.278;2023-06-10T05:43:28;101875.38;;;15.30;100.00
5996;BME280;3026;53.612;7.278;2023-06-10T05:45:55;101879.47;;;15.34;100.00
5996;BME280;3026;53.612;7.278;2023-06-10T05:48:22;101883.25;;;15.41;100.00
5996;BME280;3026;53.612;7.278;2023-06-10T05:50:49;101881.16;;;15.43;100.00
5996;BME280;3026;53.612;7.278;2023-06-10T05:53:15;101881.16;;;15.43;100.00
5996;BME280;3026;53.612;7.278;2023-06-10T05:55:44;101871.50;;;15.47;100.00
5996;BME280;3026;53.612;7.278;2023-06-10T05:58:12;101869.78;;;15.54;100.00
5996;BME280;3026;53.612;7.278;2023-06-10T06:00:39;101866.31;;;15.60;100.00
5996;BME280;3026;53.612;7.278;2023-06-10T06:03:06;101868.16;;;15.68;100.00
5996;BME280;3026;53.612;7.278;2023-06-10T06:05:33;101873.81;;;15.74;100.00
5996;BME280;3026;53.612;7.278;2023-06-10T06:08:01;101869.28;;;15.82;100.00
5996;BME280;3026;53.612;7.278;2023-06-10T06:10:28;101885.91;;;15.88;100.00
5996;BME280;3026;53.612;7.278;2023-06-10T06:12:56;101873.31;;;15.94;100.00
5996;BME280;3026;53.612;7.278;2023-06-10T06:15:23;101878.44;;;15.97;100.00
5996;BME280;3026;53.612;7.278;2023-06-10T06:17:50;101877.72;;;16.03;100.00
5996;BME280;3026;53.612;7.278;2023-06-10T06:20:17;101876.63;;;16.12;100.00
5996;BME280;3026;53.612;7.278;2023-06-10T06:22:44;101879.28;;;16.20;100.00
5996;BME280;3026;53.612;7.278;2023-06-10T06:25:11;101878.94;;;16.23;100.00
5996;BME280;3026;53.612;7.278;2023-06-10T06:27:38;101880.28;;;16.27;100.00
5996;BME280;3026;53.612;7.278;2023-06-10T06:30:08;101877.47;;;16.36;100.00
5996;BME280;3026;53.612;7.278;2023-06-10T06:32:35;101874.63;;;16.44;100.00
5996;BME280;3026;53.612;7.278;2023-06-10T06:35:01;101878.34;;;16.51;100.00
5996;BME280;3026;53.612;7.278;2023-06-10T06:37:30;101878.66;;;16.56;100.00
5996;BME280;3026;53.612;7.278;2023-06-10T06:39:57;101876.19;;;16.61;100.00
5996;BME280;3026;53.612;7.278;2023-06-10T06:42:24;101894.19;;;16.72;100.00
5996;BME280;3026;53.612;7.278;2023-06-10T06:44:51;101876.44;;;16.74;100.00
5996;BME280;3026;53.612;7.278;2023-06-10T06:47:19;101873.13;;;16.79;100.00
5996;BME280;3026;53.612;7.278;2023-06-10T06:49:46;101872.81;;;16.88;100.00
5996;BME280;3026;53.612;7.278;2023-06-10T06:52:13;101870.84;;;16.97;100.00
5996;BME280;3026;53.612;7.278;2023-06-10T06:54:40;101872.28;;;17.08;100.00
5996;BME280;3026;53.612;7.278;2023-06-10T06:57:07;101869.03;;;17.19;100.00
5996;BME280;3026;53.612;7.278;2023-06-10T06:59:34;101868.53;;;17.30;100.00
5996;BME280;3026;53.612;7.278;2023-06-10T07:02:00;101877.78;;;17.37;100.00
5996;BME280;3026;53.612;7.278;2023-06-10T07:04:28;101873.28;;;17.36;100.00
5996;BME280;3026;53.612;7.278;2023-06-10T07:06:56;101877.78;;;17.37;100.00
5996;BME280;3026;53.612;7.278;2023-06-10T07:09:22;101880.88;;;17.49;100.00
5996;BME280;3026;53.612;7.278;2023-06-10T07:11:49;101869.91;;;17.56;100.00
5996;BME280;3026;53.612;7.278;2023-06-10T07:14:16;101875.84;;;17.53;100.00
5996;BME280;3026;53.612;7.278;2023-06-10T07:16:43;101876.88;;;17.52;100.00
5996;BME280;3026;53.612;7.278;2023-06-10T07:19:10;101870.31;;;17.53;100.00
5996;BME280;3026;53.612;7.278;2023-06-10T07:21:38;101867.38;;;17.54;100.00
5996;BME280;3026;53.612;7.278;2023-06-10T07:24:06;101878.84;;;17.58;100.00
5996;BME280;3026;53.612;7.278;2023-06-10T07:26:32;101878.09;;;17.64;100.00
5996;BME280;3026;53.612;7.278;2023-06-10T07:28:59;101878.66;;;17.74;100.00
5996;BME280;3026;53.612;7.278;2023-06-10T07:31:26;101886.28;;;17.93;100.00
5996;BME280;3026;53.612;7.278;2023-06-10T07:33:53;101884.56;;;18.07;100.00
5996;BME280;3026;53.612;7.278;2023-06-10T07:36:19;101893.94;;;18.13;100.00
5996;BME280;3026;53.612;7.278;2023-06-10T07:38:48;101886.84;;;18.25;100.00
5996;BME280;3026;53.612;7.278;2023-06-10T07:41:15;101876.31;;;18.35;100.00
5996;BME280;3026;53.612;7.278;2023-06-10T07:43:43;101883.63;;;18.43;100.00
5996;BME280;3026;53.612;7.278;2023-06-10T07:46:10;101890.31;;;18.55;100.00
5996;BME280;3026;53.612;7.278;2023-06-10T07:48:37;101886.41;;;18.71;100.00
5996;BME280;3026;53.612;7.278;2023-06-10T07:51:03;101886.72;;;18.82;100.00
5996;BME280;3026;53.612;7.278;2023-06-10T07:53:30;101884.66;;;18.91;100.00
5996;BME280;3026;53.612;7.278;2023-06-10T07:55:58;101886.16;;;18.93;100.00
5996;BME280;3026;53.612;7.278;2023-06-10T07:58:25;101879.19;;;19.04;100.00
5996;BME280;3026;53.612;7.278;2023-06-10T08:00:52;101891.16;;;19.11;100.00
5996;BME280;3026;53.612;7.278;2023-06-10T08:03:20;101892.69;;;19.20;100.00
5996;BME280;3026;53.612;7.278;2023-06-10T08:05:47;101878.69;;;19.22;100.00
5996;BME280;3026;53.612;7.278;2023-06-10T08:08:14;101882.75;;;19.33;100.00
5996;BME280;3026;53.612;7.278;2023-06-10T08:10:40;101874.91;;;19.36;100.00
5996;BME280;3026;53.612;7.278;2023-06-10T08:13:09;101879.00;;;19.47;100.00
5996;BME280;3026;53.612;7.278;2023-06-10T08:15:35;101880.72;;;19.48;100.00
5996;BME280;3026;53.612;7.278;2023-06-10T08:18:02;101886.03;;;19.49;100.00
5996;BME280;3026;53.612;7.278;2023-06-10T08:20:29;101890.72;;;19.49;100.00
5996;BME280;3026;53.612;7.278;2023-06-10T08:22:56;101883.91;;;19.45;100.00
5996;BME280;3026;53.612;7.278;2023-06-10T08:25:23;101889.44;;;19.45;100.00
5996;BME280;3026;53.612;7.278;2023-06-10T08:27:50;101887.59;;;19.65;100.00
5996;BME280;3026;53.612;7.278;2023-06-10T08:30:18;101879.38;;;19.85;100.00
5996;BME280;3026;53.612;7.278;2023-06-10T08:32:45;101887.50;;;20.00;100.00
5996;BME280;3026;53.612;7.278;2023-06-10T08:35:12;101887.94;;;19.97;100.00
5996;BME280;3026;53.612;7.278;2023-06-10T08:37:39;101886.25;;;20.09;100.00
5996;BME280;3026;53.612;7.278;2023-06-10T08:40:07;101896.03;;;20.11;100.00
5996;BME280;3026;53.612;7.278;2023-06-10T08:42:39;101898.19;;;20.16;100.00
5996;BME280;3026;53.612;7.278;2023-06-10T08:45:07;101898.84;;;20.18;100.00
5996;BME280;3026;53.612;7.278;2023-06-10T08:47:39;101899.06;;;20.30;100.00
5996;BME280;3026;53.612;7.278;2023-06-10T08:50:09;101899.97;;;20.44;100.00
5996;BME280;3026;53.612;7.278;2023-06-10T08:52:37;101890.81;;;20.50;100.00
5996;BME280;3026;53.612;7.278;2023-06-10T08:55:11;101899.94;;;20.57;100.00
5996;BME280;3026;53.612;7.278;2023-06-10T08:57:38;101901.66;;;20.71;100.00
5996;BME280;3026;53.612;7.278;2023-06-10T09:00:08;101898.88;;;20.91;100.00
5996;BME280;3026;53.612;7.278;2023-06-10T09:02:37;101894.38;;;21.03;100.00
5996;BME280;3026;53.612;7.278;2023-06-10T09:05:05;101900.72;;;21.23;100.00
5996;BME280;3026;53.612;7.278;2023-06-10T09:07:32;101903.31;;;21.32;100.00
5996;BME280;3026;53.612;7.278;2023-06-10T09:10:00;101908.75;;;21.51;100.00
5996;BME280;3026;53.612;7.278;2023-06-10T09:12:29;101903.59;;;21.62;100.00
5996;BME280;3026;53.612;7.278;2023-06-10T09:14:56;101893.72;;;21.79;100.00
5996;BME280;3026;53.612;7.278;2023-06-10T09:17:23;101904.75;;;21.85;100.00
5996;BME280;3026;53.612;7.278;2023-06-10T09:19:52;101905.69;;;21.73;100.00
5996;BME280;3026;53.612;7.278;2023-06-10T09:22:21;101906.06;;;21.83;100.00
5996;BME280;3026;53.612;7.278;2023-06-10T09:24:48;101897.03;;;21.94;100.00
5996;BME280;3026;53.612;7.278;2023-06-10T09:27:15;101899.13;;;21.99;100.00
5996;BME280;3026;53.612;7.278;2023-06-10T09:29:51;101892.78;;;21.92;100.00
5996;BME280;3026;53.612;7.278;2023-06-10T09:32:19;101887.88;;;21.87;100.00
5996;BME280;3026;53.612;7.278;2023-06-10T09:34:47;101892.72;;;21.98;100.00
5996;BME280;3026;53.612;7.278;2023-06-10T09:37:21;101885.06;;;21.94;100.00
5996;BME280;3026;53.612;7.278;2023-06-10T09:40:02;101885.47;;;21.97;100.00
5996;BME280;3026;53.612;7.278;2023-06-10T09:42:33;101887.56;;;22.08;100.00
5996;BME280;3026;53.612;7.278;2023-06-10T09:45:00;101893.13;;;22.08;100.00
5996;BME280;3026;53.612;7.278;2023-06-10T09:47:28;101892.25;;;22.15;100.00
5996;BME280;3026;53.612;7.278;2023-06-10T09:49:54;101889.69;;;22.13;100.00
5996;BME280;3026;53.612;7.278;2023-06-10T09:52:23;101887.47;;;22.22;100.00
5996;BME280;3026;53.612;7.278;2023-06-10T09:54:50;101886.44;;;22.48;100.00
5996;BME280;3026;53.612;7.278;2023-06-10T09:57:20;101879.94;;;22.60;100.00
5996;BME280;3026;53.612;7.278;2023-06-10T09:59:47;101888.28;;;22.79;100.00
5996;BME280;3026;53.612;7.278;2023-06-10T10:02:14;101885.66;;;22.90;100.00
5996;BME280;3026;53.612;7.278;2023-06-10T10:04:42;101885.59;;;22.97;100.00
5996;BME280;3026;53.612;7.278;2023-06-10T10:07:09;101886.06;;;23.12;100.00
5996;BME280;3026;53.612;7.278;2023-06-10T10:09:37;101891.47;;;23.07;100.00
5996;BME280;3026;53.612;7.278;2023-06-10T10:12:09;101879.75;;;23.05;100.00
5996;BME280;3026;53.612;7.278;2023-06-10T10:14:37;101877.66;;;23.19;100.00
5996;BME280;3026;53.612;7.278;2023-06-10T10:17:09;101878.34;;;23.33;100.00
5996;BME280;3026;53.612;7.278;2023-06-10T10:19:40;101874.31;;;23.47;100.00
5996;BME280;3026;53.612;7.278;2023-06-10T10:22:15;101878.81;;;23.29;100.00
5996;BME280;3026;53.612;7.278;2023-06-10T10:24:49;101868.22;;;23.20;100.00
5996;BME280;3026;53.612;7.278;2023-06-10T10:27:18;101872.47;;;23.22;100.00
5996;BME280;3026;53.612;7.278;2023-06-10T10:29:48;101877.56;;;23.25;100.00
5996;BME280;3026;53.612;7.278;2023-06-10T10:32:18;101877.44;;;23.39;100.00
5996;BME280;3026;53.612;7.278;2023-06-10T10:34:49;101863.66;;;23.44;100.00
5996;BME280;3026;53.612;7.278;2023-06-10T10:37:17;101863.66;;;23.62;100.00
5996;BME280;3026;53.612;7.278;2023-06-10T10:39:44;101868.16;;;23.63;100.00
5996;BME280;3026;53.612;7.278;2023-06-10T10:42:13;101864.03;;;23.47;100.00
5996;BME280;3026;53.612;7.278;2023-06-10T10:44:41;101878.47;;;23.56;100.00
5996;BME280;3026;53.612;7.278;2023-06-10T10:47:08;101870.28;;;23.61;100.00
5996;BME280;3026;53.612;7.278;2023-06-10T10:49:38;101870.31;;;23.91;100.00
5996;BME280;3026;53.612;7.278;2023-06-10T10:52:11;101872.88;;;23.93;100.00
5996;BME280;3026;53.612;7.278;2023-06-10T10:54:43;101866.94;;;23.89;100.00
5996;BME280;3026;53.612;7.278;2023-06-10T10:57:15;101864.75;;;23.91;100.00
5996;BME280;3026;53.612;7.278;2023-06-10T10:59:54;101869.72;;;23.89;100.00
5996;BME280;3026;53.612;7.278;2023-06-10T11:02:40;101861.16;;;23.72;100.00
5996;BME280;3026;53.612;7.278;2023-06-10T11:05:09;101869.19;;;23.80;100.00
5996;BME280;3026;53.612;7.278;2023-06-10T11:07:37;101873.34;;;23.90;100.00
5996;BME280;3026;53.612;7.278;2023-06-10T11:10:07;101862.38;;;24.06;100.00
5996;BME280;3026;53.612;7.278;2023-06-10T11:12:50;101858.88;;;24.11;100.00
5996;BME280;3026;53.612;7.278;2023-06-10T11:15:22;101853.44;;;24.16;100.00
5996;BME280;3026;53.612;7.278;2023-06-10T11:18:07;101856.34;;;24.09;100.00
5996;BME280;3026;53.612;7.278;2023-06-10T11:20:55;101851.88;;;24.20;100.00
5996;BME280;3026;53.612;7.278;2023-06-10T11:23:34;101845.31;;;24.14;100.00
5996;BME280;3026;53.612;7.278;2023-06-10T11:26:21;101852.06;;;24.07;100.00
5996;BME280;3026;53.612;7.278;2023-06-10T11:29:03;101845.66;;;24.06;100.00
5996;BME280;3026;53.612;7.278;2023-06-10T11:31:31;101846.78;;;24.17;100.00
5996;BME280;3026;53.612;7.278;2023-06-10T11:34:00;101840.06;;;24.06;100.00
5996;BME280;3026;53.612;7.278;2023-06-10T11:36:29;101841.28;;;23.99;100.00
5996;BME280;3026;53.612;7.278;2023-06-10T11:38:57;101844.06;;;23.99;100.00
5996;BME280;3026;53.612;7.278;2023-06-10T11:41:24;101833.66;;;24.06;100.00
5996;BME280;3026;53.612;7.278;2023-06-10T11:43:52;101842.63;;;24.08;100.00
5996;BME280;3026;53.612;7.278;2023-06-10T11:46:22;101836.94;;;24.03;100.00
5996;BME280;3026;53.612;7.278;2023-06-10T11:48:50;101842.84;;;23.95;100.00
5996;BME280;3026;53.612;7.278;2023-06-10T11:51:17;101841.34;;;23.80;100.00
5996;BME280;3026;53.612;7.278;2023-06-10T11:53:44;101833.22;;;23.79;100.00
5996;BME280;3026;53.612;7.278;2023-06-10T11:56:11;101841.81;;;23.77;100.00
5996;BME280;3026;53.612;7.278;2023-06-10T11:58:41;101841.44;;;23.74;100.00
5996;BME280;3026;53.612;7.278;2023-06-10T12:01:10;101830.06;;;23.75;100.00
5996;BME280;3026;53.612;7.278;2023-06-10T12:03:38;101837.94;;;23.78;100.00
5996;BME280;3026;53.612;7.278;2023-06-10T12:06:06;101822.72;;;23.93;100.00
5996;BME280;3026;53.612;7.278;2023-06-10T12:08:33;101832.94;;;23.99;100.00
5996;BME280;3026;53.612;7.278;2023-06-10T12:11:07;101834.63;;;24.00;100.00
5996;BME280;3026;53.612;7.278;2023-06-10T12:13:34;101833.81;;;24.11;100.00
5996;BME280;3026;53.612;7.278;2023-06-10T12:16:08;101838.16;;;24.19;100.00
5996;BME280;3026;53.612;7.278;2023-06-10T12:18:35;101834.66;;;24.11;100.00
5996;BME280;3026;53.612;7.278;2023-06-10T12:21:15;101828.09;;;24.06;100.00
5996;BME280;3026;53.612;7.278;2023-06-10T12:24:00;101836.31;;;24.01;100.00
5996;BME280;3026;53.612;7.278;2023-06-10T12:26:37;101826.75;;;23.97;100.00
5996;BME280;3026;53.612;7.278;2023-06-10T12:29:21;101834.09;;;23.91;100.00
5996;BME280;3026;53.612;7.278;2023-06-10T12:32:00;101840.53;;;23.92;100.00
5996;BME280;3026;53.612;7.278;2023-06-10T12:34:35;101832.94;;;23.99;100.00
5996;BME280;3026;53.612;7.278;2023-06-10T12:37:05;101823.84;;;24.03;100.00
5996;BME280;3026;53.612;7.278;2023-06-10T12:39:32;101818.63;;;24.07;100.00
5996;BME280;3026;53.612;7.278;2023-06-10T12:42:00;101821.31;;;24.02;100.00
5996;BME280;3026;53.612;7.278;2023-06-10T12:44:31;101823.13;;;24.08;100.00
5996;BME280;3026;53.612;7.278;2023-06-10T12:46:59;101826.06;;;24.13;100.00
5996;BME280;3026;53.612;7.278;2023-06-10T12:49:27;101820.34;;;24.08;100.00
5996;BME280;3026;53.612;7.278;2023-06-10T12:51:53;101823.28;;;24.13;100.00
5996;BME280;3026;53.612;7.278;2023-06-10T12:54:22;101824.03;;;24.20;100.00
5996;BME280;3026;53.612;7.278;2023-06-10T12:56:49;101816.88;;;24.24;100.00
5996;BME280;3026;53.612;7.278;2023-06-10T12:59:16;101813.34;;;24.29;100.00
5996;BME280;3026;53.612;7.278;2023-06-10T13:01:43;101809.28;;;24.31;100.00
5996;BME280;3026;53.612;7.278;2023-06-10T13:04:09;101811.00;;;24.32;100.00
5996;BME280;3026;53.612;7.278;2023-06-10T13:06:37;101819.94;;;24.34;100.00